createdAt,value
2018-10-09T00:00:39.235Z,101179.08
2018-10-09T00:03:06.590Z,101170.47
2018-10-09T00:05:33.993Z,101171.69
2018-10-09T00:08:01.395Z,101173.73
2018-10-09T00:10:29.101Z,101174.72
2018-10-09T00:12:56.509Z,101172.48
2018-10-09T00:15:24.081Z,101162.78
2018-10-09T00:17:51.645Z,101167.08
2018-10-09T00:20:23.598Z,101166.81
2018-10-09T00:22:52.382Z,101166.81
2018-10-09T00:25:19.846Z,101170.30
2018-10-09T00:27:47.276Z,101174.13
2018-10-09T00:30:14.742Z,101178.35
2018-10-09T00:32:45.636Z,101179.96
2018-10-09T00:35:13.577Z,101184.34
2018-10-09T00:37:40.912Z,101189.86
2018-10-09T00:40:08.487Z,101186.29
2018-10-09T00:42:36.063Z,101191.37
2018-10-09T00:45:03.717Z,101191.73
2018-10-09T00:47:31.206Z,101191.07
2018-10-09T00:49:58.652Z,101186.85
2018-10-09T00:52:26.211Z,101181.45
2018-10-09T00:54:53.687Z,101184.28
2018-10-09T00:57:21.122Z,101178.98
2018-10-09T00:59:48.528Z,101181.72
2018-10-09T01:02:16.283Z,101187.59
2018-10-09T01:04:43.704Z,101188.08
2018-10-09T01:07:11.158Z,101189.96
2018-10-09T01:09:38.737Z,101199.09
2018-10-09T01:12:06.265Z,101193.92
2018-10-09T01:14:33.695Z,101192.34
2018-10-09T01:17:01.208Z,101193.52
2018-10-09T01:19:28.973Z,101190.89
2018-10-09T01:21:56.413Z,101197.25
2018-10-09T01:24:23.946Z,101205.47
2018-10-09T01:26:51.392Z,101213.34
2018-10-09T01:29:18.800Z,101216.48
2018-10-09T01:31:46.259Z,101215.72
2018-10-09T01:34:13.668Z,101208.50
2018-10-09T01:36:41.132Z,101203.64
2018-10-09T01:39:09.438Z,101197.61
2018-10-09T01:41:36.981Z,101187.84
2018-10-09T01:44:04.441Z,101198.98
2018-10-09T01:46:31.885Z,101205.41
2018-10-09T01:48:59.287Z,101195.67
2018-10-09T01:51:26.811Z,101196.09
2018-10-09T01:53:54.491Z,101189.69
2018-10-09T01:56:21.968Z,101194.14
2018-10-09T01:58:49.369Z,101192.78
2018-10-09T02:01:16.833Z,101195.02
2018-10-09T02:03:44.315Z,101198.52
2018-10-09T02:06:14.778Z,101204.42
2018-10-09T02:08:42.217Z,101207.05
2018-10-09T02:11:09.620Z,101205.04
2018-10-09T02:13:37.008Z,101201.09
2018-10-09T02:16:04.489Z,101201.95
2018-10-09T02:18:32.123Z,101199.17
2018-10-09T02:20:59.541Z,101189.64
2018-10-09T02:23:27.133Z,101189.14
2018-10-09T02:25:54.541Z,101182.73
2018-10-09T02:28:21.929Z,101177.95
2018-10-09T02:30:49.369Z,101190.14
2018-10-09T02:33:16.761Z,101185.60
2018-10-09T02:35:44.143Z,101191.75
2018-10-09T02:38:11.621Z,101191.06
2018-10-09T02:40:39.109Z,101186.34
2018-10-09T02:43:06.493Z,101179.58
2018-10-09T02:45:33.975Z,101177.98
2018-10-09T02:48:01.325Z,101180.20
2018-10-09T02:50:28.733Z,101178.25
2018-10-09T02:52:56.189Z,101175.70
2018-10-09T02:55:23.607Z,101164.75
2018-10-09T02:57:51.025Z,101173.38
2018-10-09T03:00:18.460Z,101176.87
2018-10-09T03:02:45.949Z,101181.71
2018-10-09T03:05:13.345Z,101186.52
2018-10-09T03:07:40.829Z,101188.32
2018-10-09T03:10:08.269Z,101182.41
2018-10-09T03:12:35.681Z,101184.77
2018-10-09T03:15:03.649Z,101186.76
2018-10-09T03:17:31.059Z,101185.08
2018-10-09T03:19:58.501Z,101182.23
2018-10-09T03:22:25.933Z,101178.00
2018-10-09T03:24:53.325Z,101182.08
2018-10-09T03:27:20.769Z,101188.67
2018-10-09T03:29:48.273Z,101187.93
2018-10-09T03:32:15.697Z,101182.78
2018-10-09T03:34:43.107Z,101181.20
2018-10-09T03:37:10.587Z,101174.25
2018-10-09T03:39:38.096Z,101181.21
2018-10-09T03:42:05.793Z,101178.59
2018-10-09T03:44:33.239Z,101184.61
2018-10-09T03:47:00.621Z,101179.47
2018-10-09T03:49:28.111Z,101184.54
2018-10-09T03:51:55.553Z,101186.98
2018-10-09T03:54:23.055Z,101193.30
2018-10-09T03:56:50.613Z,101199.59
2018-10-09T03:59:18.030Z,101205.14
2018-10-09T04:01:45.436Z,101204.84
2018-10-09T04:04:12.843Z,101206.69
2018-10-09T04:06:40.263Z,101213.92
2018-10-09T04:09:10.251Z,101213.01
2018-10-09T04:11:37.669Z,101207.92
2018-10-09T04:14:05.189Z,101213.92
2018-10-09T04:16:32.573Z,101212.15
2018-10-09T04:18:59.975Z,101208.20
2018-10-09T04:21:27.471Z,101203.15
2018-10-09T04:23:54.965Z,101200.69
2018-10-09T04:26:22.492Z,101201.27
2018-10-09T04:28:50.000Z,101196.46
2018-10-09T04:31:17.445Z,101197.49
2018-10-09T04:33:44.862Z,101191.32
2018-10-09T04:36:12.325Z,101187.27
2018-10-09T04:38:39.734Z,101179.94
2018-10-09T04:41:07.237Z,101169.51
2018-10-09T04:43:34.717Z,101166.79
2018-10-09T04:46:02.190Z,101159.66
2018-10-09T04:48:29.648Z,101167.19
2018-10-09T04:50:57.104Z,101172.37
2018-10-09T04:53:24.583Z,101174.26
2018-10-09T04:55:52.000Z,101176.11
2018-10-09T04:58:19.436Z,101175.66
2018-10-09T05:00:47.011Z,101168.72
2018-10-09T05:03:14.467Z,101162.51
2018-10-09T05:05:41.922Z,101166.37
2018-10-09T05:08:09.408Z,101163.45
2018-10-09T05:10:36.819Z,101168.58
2018-10-09T05:13:04.200Z,101172.05
2018-10-09T05:15:31.694Z,101174.95
2018-10-09T05:17:59.081Z,101179.25
2018-10-09T05:20:26.552Z,101174.64
2018-10-09T05:22:53.941Z,101172.56
2018-10-09T05:25:21.397Z,101177.05
2018-10-09T05:27:48.952Z,101177.42
2018-10-09T05:30:16.344Z,101179.14
2018-10-09T05:32:43.740Z,101178.28
2018-10-09T05:35:11.137Z,101171.70
2018-10-09T05:37:38.590Z,101172.28
2018-10-09T05:40:06.077Z,101170.48
2018-10-09T05:42:33.546Z,101161.18
2018-10-09T05:45:00.986Z,101167.67
2018-10-09T05:47:28.434Z,101175.27
2018-10-09T05:49:55.901Z,101175.23
2018-10-09T05:52:23.438Z,101180.11
2018-10-09T05:54:50.847Z,101183.15
2018-10-09T05:57:18.285Z,101179.54
2018-10-09T05:59:45.759Z,101182.55
2018-10-09T06:02:13.329Z,101182.84
2018-10-09T06:04:40.776Z,101191.06
2018-10-09T06:07:08.256Z,101192.64
2018-10-09T06:09:35.832Z,101191.11
2018-10-09T06:12:03.571Z,101191.75
2018-10-09T06:14:30.957Z,101195.91
2018-10-09T06:16:58.442Z,101194.78
2018-10-09T06:19:25.949Z,101200.01
2018-10-09T06:21:53.453Z,101206.96
2018-10-09T06:24:20.869Z,101212.84
2018-10-09T06:26:48.913Z,101221.89
2018-10-09T06:29:18.513Z,101224.67
2018-10-09T06:31:47.438Z,101232.43
2018-10-09T06:34:15.843Z,101227.05
2018-10-09T06:36:43.373Z,101234.81
2018-10-09T06:39:11.600Z,101234.28
2018-10-09T06:41:40.008Z,101235.94
2018-10-09T06:44:07.470Z,101237.78
2018-10-09T06:46:35.050Z,101244.06
2018-10-09T06:49:02.601Z,101244.70
2018-10-09T06:51:30.042Z,101250.64
2018-10-09T06:53:58.663Z,101249.19
2018-10-09T06:56:26.600Z,101250.25
2018-10-09T06:58:54.338Z,101258.73
2018-10-09T07:01:21.752Z,101259.34
2018-10-09T07:03:49.167Z,101251.56
2018-10-09T07:06:16.662Z,101253.75
2018-10-09T07:08:44.171Z,101265.68
2018-10-09T07:11:11.734Z,101267.02
2018-10-09T07:13:39.055Z,101264.77
2018-10-09T07:16:06.536Z,101278.36
2018-10-09T07:18:33.987Z,101272.33
2018-10-09T07:21:01.457Z,101267.36
2018-10-09T07:23:28.902Z,101278.41
2018-10-09T07:25:56.378Z,101274.27
2018-10-09T07:28:23.798Z,101284.80
2018-10-09T07:30:51.266Z,101286.50
2018-10-09T07:33:18.791Z,101297.46
2018-10-09T07:35:46.212Z,101305.08
2018-10-09T07:38:13.762Z,101302.70
2018-10-09T07:40:41.236Z,101298.63
2018-10-09T07:43:08.782Z,101305.58
2018-10-09T07:45:36.247Z,101308.42
2018-10-09T07:48:03.678Z,101309.66
2018-10-09T07:50:31.106Z,101313.59
2018-10-09T07:52:58.798Z,101315.75
2018-10-09T07:55:26.407Z,101316.94
2018-10-09T07:57:55.019Z,101314.34
2018-10-09T08:00:23.113Z,101320.22
2018-10-09T08:02:50.552Z,101317.25
2018-10-09T08:05:18.103Z,101323.72
2018-10-09T08:07:45.599Z,101324.75
2018-10-09T08:10:13.079Z,101327.66
2018-10-09T08:12:40.617Z,101335.27
2018-10-09T08:15:08.190Z,101338.69
2018-10-09T08:17:35.715Z,101344.40
2018-10-09T08:20:03.435Z,101343.52
2018-10-09T08:22:31.010Z,101347.43
2018-10-09T08:24:58.661Z,101347.03
2018-10-09T08:27:26.328Z,101352.69
2018-10-09T08:29:53.765Z,101357.38
2018-10-09T08:32:21.321Z,101362.25
2018-10-09T08:34:48.663Z,101355.09
2018-10-09T08:37:16.113Z,101349.20
2018-10-09T08:39:44.415Z,101354.24
2018-10-09T08:42:11.895Z,101354.98
2018-10-09T08:44:39.354Z,101360.36
2018-10-09T08:47:06.920Z,101354.84
2018-10-09T08:49:34.462Z,101356.03
2018-10-09T08:52:01.982Z,101361.88
2018-10-09T08:54:29.347Z,101362.91
2018-10-09T08:56:56.784Z,101358.28
2018-10-09T08:59:24.245Z,101365.39
2018-10-09T09:01:51.789Z,101363.58
2018-10-09T09:04:19.265Z,101358.53
2018-10-09T09:06:46.699Z,101361.58
2018-10-09T09:09:14.146Z,101361.59
2018-10-09T09:11:41.627Z,101354.69
2018-10-09T09:14:09.095Z,101357.09
2018-10-09T09:16:36.525Z,101355.95
2018-10-09T09:19:04.065Z,101352.13
2018-10-09T09:21:32.103Z,101343.09
2018-10-09T09:23:59.891Z,101340.98
2018-10-09T09:26:27.466Z,101338.52
2018-10-09T09:28:55.446Z,101347.38
2018-10-09T09:31:22.926Z,101344.16
2018-10-09T09:33:50.419Z,101344.51
2018-10-09T09:36:17.839Z,101342.95
2018-10-09T09:38:45.286Z,101339.41
2018-10-09T09:41:12.812Z,101341.58
2018-10-09T09:43:40.263Z,101344.39
2018-10-09T09:46:07.935Z,101337.35
2018-10-09T09:48:35.373Z,101338.16
2018-10-09T09:51:02.819Z,101335.08
2018-10-09T09:53:30.288Z,101337.64
2018-10-09T09:55:57.693Z,101331.91
2018-10-09T09:58:25.259Z,101324.09
2018-10-09T10:00:56.091Z,101324.86
2018-10-09T10:03:23.496Z,101317.12
2018-10-09T10:05:50.930Z,101319.69
2018-10-09T10:08:18.537Z,101315.27
2018-10-09T10:10:45.953Z,101315.38
2018-10-09T10:13:13.441Z,101315.86
2018-10-09T10:15:40.949Z,101320.84
2018-10-09T10:18:08.294Z,101322.44
2018-10-09T10:20:35.692Z,101319.26
2018-10-09T10:23:03.144Z,101325.06
2018-10-09T10:25:30.690Z,101321.80
2018-10-09T10:27:58.093Z,101323.00
2018-10-09T10:30:26.040Z,101322.70
2018-10-09T10:32:53.461Z,101324.41
2018-10-09T10:35:20.939Z,101317.38
2018-10-09T10:37:48.382Z,101313.11
2018-10-09T10:40:15.818Z,101310.58
2018-10-09T10:42:43.709Z,101312.47
2018-10-09T10:45:11.280Z,101311.28
2018-10-09T10:47:38.706Z,101309.13
2018-10-09T10:50:06.140Z,101307.94
2018-10-09T10:55:07.811Z,101301.06
2018-10-09T10:57:35.221Z,101298.33
2018-10-09T11:00:03.015Z,101293.52
2018-10-09T11:02:30.480Z,101296.41
2018-10-09T11:04:57.921Z,101290.55
2018-10-09T11:07:25.343Z,101282.84
2018-10-09T11:09:52.777Z,101278.78
2018-10-09T11:12:20.325Z,101285.75
2018-10-09T11:14:47.812Z,101284.39
2018-10-09T11:17:15.379Z,101286.30
2018-10-09T11:19:42.882Z,101285.60
2018-10-09T11:22:10.352Z,101287.27
2018-10-09T11:24:37.749Z,101287.74
2018-10-09T11:27:05.303Z,101281.30
2018-10-09T11:29:32.719Z,101284.17
2018-10-09T11:32:00.228Z,101283.67
2018-10-09T11:34:27.671Z,101277.39
2018-10-09T11:36:55.114Z,101274.59
2018-10-09T11:39:22.522Z,101278.89
2018-10-09T11:41:50.291Z,101276.22
2018-10-09T11:44:17.664Z,101266.78
2018-10-09T11:46:45.134Z,101263.77
2018-10-09T11:49:12.634Z,101256.08
2018-10-09T11:51:40.185Z,101261.15
2018-10-09T11:54:07.666Z,101256.45
2018-10-09T11:56:35.169Z,101252.92
2018-10-09T11:59:02.721Z,101242.73
2018-10-09T12:01:30.138Z,101244.52
2018-10-09T12:03:57.772Z,101244.38
2018-10-09T12:06:25.218Z,101239.84
2018-10-09T12:08:52.727Z,101231.31
2018-10-09T12:11:20.632Z,101227.63
2018-10-09T12:13:48.254Z,101229.75
2018-10-09T12:16:15.917Z,101223.25
2018-10-09T12:18:43.448Z,101234.97
2018-10-09T12:21:10.908Z,101232.30
2018-10-09T12:23:38.374Z,101232.83
2018-10-09T12:26:05.984Z,101229.45
2018-10-09T12:28:33.382Z,101232.13
2018-10-09T12:31:01.265Z,101235.81
2018-10-09T12:33:29.034Z,101229.64
2018-10-09T12:35:56.482Z,101224.45
2018-10-09T12:38:23.968Z,101220.09
2018-10-09T12:40:51.418Z,101222.77
2018-10-09T12:43:18.944Z,101221.09
2018-10-09T12:45:46.477Z,101212.22
2018-10-09T12:48:14.202Z,101212.41
2018-10-09T12:50:41.600Z,101210.20
2018-10-09T12:53:09.028Z,101209.38
2018-10-09T12:55:36.488Z,101206.02
2018-10-09T12:58:04.031Z,101206.00
2018-10-09T13:00:31.651Z,101199.80
2018-10-09T13:02:59.331Z,101190.61
2018-10-09T13:05:26.794Z,101186.27
2018-10-09T13:07:54.306Z,101188.59
2018-10-09T13:10:21.827Z,101194.66
2018-10-09T13:12:49.492Z,101195.33
2018-10-09T13:15:16.931Z,101185.75
2018-10-09T13:17:44.558Z,101186.77
2018-10-09T13:20:11.790Z,101193.48
2018-10-09T13:22:39.264Z,101189.28
2018-10-09T13:25:07.280Z,101189.45
2018-10-09T13:27:34.718Z,101184.76
2018-10-09T13:30:02.226Z,101178.06
2018-10-09T13:32:29.700Z,101174.67
2018-10-09T13:34:57.210Z,101174.19
2018-10-09T13:37:24.758Z,101163.79
2018-10-09T13:39:52.240Z,101160.61
2018-10-09T13:42:19.738Z,101153.78
2018-10-09T13:44:47.248Z,101155.58
2018-10-09T13:47:14.776Z,101151.20
2018-10-09T13:49:42.382Z,101145.32
2018-10-09T13:52:09.926Z,101154.87
2018-10-09T13:54:37.383Z,101145.64
2018-10-09T13:57:04.926Z,101141.92
2018-10-09T13:59:32.378Z,101141.23
2018-10-09T14:01:59.866Z,101143.22
2018-10-09T14:04:27.338Z,101139.68
2018-10-09T14:06:54.884Z,101135.78
2018-10-09T14:09:22.334Z,101132.40
2018-10-09T14:11:49.771Z,101134.27
2018-10-09T14:14:17.302Z,101133.25
2018-10-09T14:16:45.432Z,101130.90
2018-10-09T14:19:13.009Z,101122.25
2018-10-09T14:21:40.634Z,101122.41
2018-10-09T14:24:08.096Z,101118.06
2018-10-09T14:26:35.974Z,101116.40
2018-10-09T14:29:03.584Z,101119.08
2018-10-09T14:31:31.205Z,101113.59
2018-10-09T14:33:58.608Z,101116.28
2018-10-09T14:36:26.210Z,101111.08
2018-10-09T14:38:53.810Z,101112.27
2018-10-09T14:41:21.726Z,101110.43
2018-10-09T14:43:49.943Z,101111.97
2018-10-09T14:46:17.915Z,101115.30
2018-10-09T14:48:45.405Z,101118.31
2018-10-09T14:51:12.898Z,101113.16
2018-10-09T14:53:40.526Z,101108.97
2018-10-09T14:56:08.105Z,101115.30
2018-10-09T14:58:35.575Z,101106.94
2018-10-09T15:01:03.075Z,101105.23
2018-10-09T15:03:30.714Z,101107.26
2018-10-09T15:05:58.087Z,101109.25
2018-10-09T15:08:25.527Z,101110.91
2018-10-09T15:10:53.165Z,101115.43
2018-10-09T15:13:20.827Z,101113.27
2018-10-09T15:15:48.367Z,101112.63
2018-10-09T15:18:15.935Z,101109.45
2018-10-09T15:20:43.685Z,101109.33
2018-10-09T15:23:11.371Z,101116.69
2018-10-09T15:25:38.893Z,101111.52
2018-10-09T15:28:06.873Z,101109.03
2018-10-09T15:30:34.374Z,101117.08
2018-10-09T15:33:02.016Z,101107.86
2018-10-09T15:35:29.562Z,101111.06
2018-10-09T15:37:57.247Z,101105.34
2018-10-09T15:40:25.048Z,101111.87
2018-10-09T15:42:52.874Z,101116.55
2018-10-09T15:45:20.565Z,101118.09
2018-10-09T15:47:48.506Z,101123.48
2018-10-09T15:50:16.343Z,101117.95
2018-10-09T15:52:44.180Z,101117.61
2018-10-09T15:55:11.788Z,101111.42
2018-10-09T15:57:39.458Z,101110.11
2018-10-09T16:00:09.138Z,101116.66
2018-10-09T16:02:36.790Z,101108.78
2018-10-09T16:05:04.560Z,101111.98
2018-10-09T16:07:32.204Z,101113.64
2018-10-09T16:09:59.718Z,101116.45
2018-10-09T16:12:27.229Z,101115.27
2018-10-09T16:14:54.740Z,101115.42
2018-10-09T16:17:22.305Z,101115.73
2018-10-09T16:19:49.760Z,101114.34
2018-10-09T16:22:17.222Z,101115.78
2018-10-09T16:24:44.652Z,101113.88
2018-10-09T16:27:12.138Z,101112.81
2018-10-09T16:29:39.698Z,101119.12
2018-10-09T16:32:07.227Z,101119.89
2018-10-09T16:34:34.785Z,101122.00
2018-10-09T16:37:02.506Z,101120.29
2018-10-09T16:39:29.997Z,101122.25
2018-10-09T16:41:57.463Z,101121.01
2018-10-09T16:44:25.034Z,101125.14
2018-10-09T16:46:52.612Z,101120.08
2018-10-09T16:49:20.093Z,101122.56
2018-10-09T16:51:47.630Z,101127.41
2018-10-09T16:54:15.083Z,101133.95
2018-10-09T16:56:42.626Z,101126.28
2018-10-09T16:59:10.103Z,101123.01
2018-10-09T17:01:37.840Z,101122.73
2018-10-09T17:04:05.305Z,101119.45
2018-10-09T17:06:32.899Z,101125.83
2018-10-09T17:09:00.504Z,101127.52
2018-10-09T17:11:28.006Z,101134.56
2018-10-09T17:13:55.564Z,101133.78
2018-10-09T17:16:23.022Z,101126.68
2018-10-09T17:18:50.532Z,101134.67
2018-10-09T17:21:18.056Z,101131.39
2018-10-09T17:23:46.106Z,101132.63
2018-10-09T17:26:13.592Z,101140.41
2018-10-09T17:28:41.126Z,101140.98
2018-10-09T17:31:08.613Z,101148.98
2018-10-09T17:33:36.185Z,101140.67
2018-10-09T17:36:03.720Z,101144.34
2018-10-09T17:38:31.127Z,101152.41
2018-10-09T17:40:58.598Z,101148.16
2018-10-09T17:43:26.102Z,101158.00
2018-10-09T17:45:53.572Z,101156.03
2018-10-09T17:48:21.014Z,101158.34
2018-10-09T17:50:48.528Z,101163.03
2018-10-09T17:53:15.956Z,101157.79
2018-10-09T17:55:43.420Z,101159.41
2018-10-09T17:58:11.039Z,101154.56
2018-10-09T18:00:38.635Z,101159.96
2018-10-09T18:03:06.287Z,101162.48
2018-10-09T18:05:33.735Z,101167.91
2018-10-09T18:08:01.255Z,101164.76
2018-10-09T18:10:28.720Z,101172.58
2018-10-09T18:12:56.198Z,101170.88
2018-10-09T18:15:23.716Z,101166.61
2018-10-09T18:17:51.181Z,101170.03
2018-10-09T18:20:18.799Z,101177.36
2018-10-09T18:22:46.259Z,101168.95
2018-10-09T18:25:13.711Z,101178.03
2018-10-09T18:27:41.254Z,101173.69
2018-10-09T18:30:09.357Z,101176.86
2018-10-09T18:32:36.903Z,101173.98
2018-10-09T18:35:04.629Z,101177.23
2018-10-09T18:37:32.107Z,101179.70
2018-10-09T18:39:59.525Z,101179.54
2018-10-09T18:42:27.116Z,101178.31
2018-10-09T18:44:54.472Z,101176.76
2018-10-09T18:47:27.551Z,101176.47
2018-10-09T18:49:55.035Z,101179.97
2018-10-09T18:52:22.560Z,101177.84
2018-10-09T18:54:50.064Z,101177.50
2018-10-09T18:57:17.489Z,101177.84
2018-10-09T18:59:45.016Z,101178.83
2018-10-09T19:02:12.510Z,101181.12
2018-10-09T19:04:39.943Z,101191.88
2018-10-09T19:07:07.471Z,101184.94
2018-10-09T19:09:34.956Z,101185.34
2018-10-09T19:12:02.719Z,101185.94
2018-10-09T19:14:30.131Z,101193.67
2018-10-09T19:16:57.648Z,101186.11
2018-10-09T19:19:25.078Z,101188.34
2018-10-09T19:21:52.643Z,101181.38
2018-10-09T19:24:20.068Z,101185.00
2018-10-09T19:26:47.666Z,101186.80
2018-10-09T19:29:15.216Z,101185.11
2018-10-09T19:31:42.740Z,101187.89
2018-10-09T19:34:10.202Z,101195.73
2018-10-09T19:36:37.647Z,101189.38
2018-10-09T19:39:08.030Z,101196.98
2018-10-09T19:41:35.782Z,101192.03
2018-10-09T19:44:03.238Z,101190.59
2018-10-09T19:46:30.726Z,101197.11
2018-10-09T19:48:58.156Z,101192.95
2018-10-09T19:51:25.710Z,101193.45
2018-10-09T19:53:53.070Z,101197.20
2018-10-09T19:56:20.619Z,101193.73
2018-10-09T19:58:48.069Z,101196.63
2018-10-09T20:01:15.578Z,101198.92
2018-10-09T20:03:42.997Z,101192.80
2018-10-09T20:06:10.426Z,101199.63
2018-10-09T20:08:38.014Z,101197.56
2018-10-09T20:11:05.549Z,101188.66
2018-10-09T20:13:33.049Z,101196.19
2018-10-09T20:16:02.134Z,101185.36
2018-10-09T20:18:29.590Z,101186.25
2018-10-09T20:20:57.092Z,101184.11
2018-10-09T20:23:24.577Z,101191.94
2018-10-09T20:25:52.145Z,101192.45
2018-10-09T20:28:19.633Z,101190.06
2018-10-09T20:30:47.110Z,101187.30
2018-10-09T20:33:14.546Z,101188.53
2018-10-09T20:35:42.138Z,101186.52
2018-10-09T20:38:09.772Z,101186.42
2018-10-09T20:40:37.321Z,101187.53
2018-10-09T20:43:04.897Z,101186.96
2018-10-09T20:45:32.415Z,101190.08
2018-10-09T20:47:59.804Z,101186.84
2018-10-09T20:50:27.224Z,101184.19
2018-10-09T20:52:54.683Z,101191.05
2018-10-09T20:55:22.182Z,101186.96
2018-10-09T20:57:49.659Z,101186.81
2018-10-09T21:00:17.301Z,101189.00
2018-10-09T21:02:44.727Z,101184.66
2018-10-09T21:05:12.308Z,101191.05
2018-10-09T21:07:39.801Z,101196.81
2018-10-09T21:10:07.299Z,101193.34
2018-10-09T21:12:34.811Z,101189.59
2018-10-09T21:15:02.297Z,101194.30
2018-10-09T21:17:29.722Z,101186.84
2018-10-09T21:19:57.566Z,101198.55
2018-10-09T21:22:28.121Z,101192.77
2018-10-09T21:24:55.713Z,101194.70
2018-10-09T21:27:23.151Z,101200.36
2018-10-09T21:29:50.657Z,101191.92
2018-10-09T21:32:18.084Z,101191.20
2018-10-09T21:34:45.509Z,101189.39
2018-10-09T21:37:13.106Z,101189.48
2018-10-09T21:39:40.497Z,101185.17
2018-10-09T21:42:07.866Z,101188.27
2018-10-09T21:44:35.343Z,101191.88
2018-10-09T21:47:02.798Z,101187.05
2018-10-09T21:49:30.237Z,101185.73
2018-10-09T21:51:57.785Z,101186.83
2018-10-09T21:54:25.203Z,101179.59
2018-10-09T21:56:52.643Z,101180.31
2018-10-09T21:59:20.069Z,101181.52
2018-10-09T22:01:47.570Z,101174.45
2018-10-09T22:04:15.178Z,101177.09
2018-10-09T22:06:42.767Z,101182.16
2018-10-09T22:09:10.290Z,101184.06
2018-10-09T22:11:37.737Z,101182.52
2018-10-09T22:14:05.426Z,101182.87
2018-10-09T22:16:32.967Z,101179.41
2018-10-09T22:19:00.534Z,101184.93
2018-10-09T22:21:28.113Z,101185.80
2018-10-09T22:23:55.540Z,101181.09
2018-10-09T22:26:22.986Z,101188.08
2018-10-09T22:28:50.474Z,101191.09
2018-10-09T22:31:17.962Z,101185.80
2018-10-09T22:33:45.479Z,101187.50
2018-10-09T22:36:13.026Z,101185.58
2018-10-09T22:38:40.603Z,101180.50
2018-10-09T22:41:08.178Z,101176.28
2018-10-09T22:43:35.632Z,101181.72
2018-10-09T22:46:03.114Z,101187.02
2018-10-09T22:48:30.579Z,101185.69
2018-10-09T22:50:58.252Z,101180.86
2018-10-09T22:53:25.634Z,101179.19
2018-10-09T22:55:53.106Z,101174.86
2018-10-09T22:58:20.654Z,101175.33
2018-10-09T23:00:48.139Z,101168.30
2018-10-09T23:03:15.760Z,101172.52
2018-10-09T23:05:43.258Z,101177.20
2018-10-09T23:08:10.771Z,101176.14
2018-10-09T23:10:38.229Z,101176.85
2018-10-09T23:13:05.962Z,101173.25
2018-10-09T23:15:33.511Z,101177.07
2018-10-09T23:18:00.905Z,101171.53
2018-10-09T23:20:28.398Z,101174.42
2018-10-09T23:22:55.846Z,101173.31
2018-10-09T23:25:23.316Z,101170.78
2018-10-09T23:27:50.797Z,101173.66
2018-10-09T23:30:18.226Z,101169.91
2018-10-09T23:32:45.678Z,101171.73
2018-10-09T23:35:13.169Z,101165.34
2018-10-09T23:37:40.701Z,101166.55
2018-10-09T23:40:08.260Z,101164.62
2018-10-09T23:42:35.803Z,101162.08
2018-10-09T23:45:03.350Z,101153.08
2018-10-09T23:47:30.930Z,101151.26
2018-10-09T23:49:58.508Z,101146.94
2018-10-09T23:52:25.930Z,101143.23
2018-10-09T23:54:53.512Z,101146.73
2018-10-09T23:57:21.203Z,101144.34
2018-10-09T23:59:48.627Z,101141.23
